Time;durP1;ratioP1;P1;durP2;ratioP2;P2;SDS_P1;SDS_P2;PMS_P1;PMS_P2;Temp;Humidity;BMP_temperature;BMP_pressure;BME280_temperature;BME280_humidity;BME280_pressure;Samples;Min_cycle;Max_cycle;Signal;HPM_P1;HPM_P2
2022/01/08 00:01:54;;;;;;;13.93;2.70;;;6.70;99.90;;;;;;5029161;28;20520;-83
2022/01/08 00:04:20;;;;;;;8.82;2.70;;;6.70;99.90;;;;;;5031486;28;20030;-83
2022/01/08 00:06:46;;;;;;;15.25;3.25;;;6.70;99.90;;;;;;5030077;28;20022;-83
2022/01/08 00:09:12;;;;;;;11.85;2.70;;;6.80;99.90;;;;;;5032226;28;20096;-84
2022/01/08 00:11:41;;;;;;;27.85;3.38;;;6.80;99.90;;;;;;5032402;28;20018;-83
2022/01/08 00:14:09;;;;;;;16.38;3.40;;;6.80;99.90;;;;;;5026215;28;20029;-83
2022/01/08 00:16:35;;;;;;;12.93;3.17;;;6.90;99.90;;;;;;5028926;28;20124;-83
2022/01/08 00:19:00;;;;;;;10.05;2.30;;;6.90;99.90;;;;;;5030754;28;20472;-84
2022/01/08 00:21:26;;;;;;;16.38;2.92;;;7.00;99.90;;;;;;5029298;28;20067;-83
2022/01/08 00:23:52;;;;;;;13.27;2.63;;;7.10;99.90;;;;;;5032670;28;20276;-83
2022/01/08 00:26:18;;;;;;;15.00;2.70;;;7.10;99.90;;;;;;5029619;28;20474;-83
2022/01/08 00:28:43;;;;;;;25.02;4.00;;;7.10;99.90;;;;;;5031201;28;20025;-83
2022/01/08 00:31:12;;;;;;;15.13;3.03;;;7.20;99.90;;;;;;5030666;28;20029;-83
2022/01/08 00:33:38;;;;;;;10.27;2.90;;;7.20;99.90;;;;;;5030475;28;20120;-83
2022/01/08 00:36:07;;;;;;;12.55;2.97;;;7.20;99.90;;;;;;5032462;28;20022;-84
2022/01/08 00:38:33;;;;;;;25.52;4.15;;;7.30;99.90;;;;;;5030390;28;20052;-83
2022/01/08 00:40:59;;;;;;;24.65;4.00;;;7.30;99.90;;;;;;5030922;28;20025;-83
2022/01/08 00:43:25;;;;;;;14.40;2.70;;;7.30;99.90;;;;;;5028842;28;20033;-83
2022/01/08 00:45:51;;;;;;;14.80;3.50;;;7.30;99.90;;;;;;5030310;28;20022;-84
2022/01/08 00:48:17;;;;;;;16.90;3.10;;;7.20;99.90;;;;;;5030843;28;20064;-83
2022/01/08 00:50:43;;;;;;;15.10;2.95;;;7.30;99.90;;;;;;5028777;28;20516;-84
2022/01/08 00:53:09;;;;;;;10.25;3.22;;;7.20;99.90;;;;;;5029711;28;20033;-84
2022/01/08 00:55:34;;;;;;;27.40;4.45;;;7.30;99.90;;;;;;5030882;28;20036;-83
2022/01/08 00:58:00;;;;;;;9.15;2.63;;;7.20;99.90;;;;;;5029793;28;20515;-83
2022/01/08 01:00:26;;;;;;;19.08;3.20;;;7.20;99.90;;;;;;5030209;28;20516;-84
2022/01/08 01:02:53;;;;;;;13.63;2.70;;;7.30;99.90;;;;;;5031867;28;20418;-84
2022/01/08 01:05:20;;;;;;;17.52;4.38;;;7.40;99.90;;;;;;5030107;28;20109;-84
2022/01/08 01:07:46;;;;;;;10.27;3.15;;;7.30;99.90;;;;;;5029081;28;20018;-84
2022/01/08 01:10:13;;;;;;;10.80;2.92;;;7.30;99.90;;;;;;5029898;28;20018;-84
2022/01/08 01:12:39;;;;;;;16.05;2.50;;;7.40;99.90;;;;;;5030063;28;20125;-84
2022/01/08 01:15:08;;;;;;;14.65;3.20;;;7.40;99.90;;;;;;5031618;28;20022;-84
2022/01/08 01:17:33;;;;;;;18.33;3.80;;;7.40;99.90;;;;;;5030255;28;20059;-83
2022/01/08 01:19:59;;;;;;;20.13;2.95;;;7.50;99.90;;;;;;5029395;28;20037;-84
2022/01/08 01:22:29;;;;;;;12.80;3.33;;;7.50;99.90;;;;;;5030143;28;20035;-84
2022/01/08 01:25:03;;;;;;;13.23;2.85;;;7.50;99.90;;;;;;5028993;28;20103;-83
2022/01/08 01:30:16;;;;;;;20.50;4.63;;;7.40;99.90;;;;;;5029673;28;20022;-84
2022/01/08 01:42:19;;;;;;;16.83;3.35;;;7.40;99.90;;;;;;5029870;28;20080;-84
2022/01/08 01:49:08;;;;;;;13.25;3.17;;;7.40;99.90;;;;;;5029199;28;20105;-83
2022/01/08 01:51:35;;;;;;;11.63;2.25;;;7.50;99.90;;;;;;5029965;28;20116;-83
2022/01/08 01:54:01;;;;;;;14.43;3.75;;;7.50;99.90;;;;;;5030966;28;20025;-83
2022/01/08 01:56:27;;;;;;;17.95;3.85;;;7.50;99.90;;;;;;5028076;28;20099;-83
2022/01/08 01:58:53;;;;;;;17.35;3.15;;;7.50;99.90;;;;;;5027884;28;20025;-84
2022/01/08 02:01:19;;;;;;;15.73;3.60;;;7.50;99.90;;;;;;5028489;28;20045;-83
2022/01/08 02:03:45;;;;;;;15.38;3.33;;;7.60;99.90;;;;;;5026990;28;20049;-84
2022/01/08 02:06:11;;;;;;;19.10;3.13;;;7.60;99.90;;;;;;5030335;28;20494;-83
2022/01/08 02:08:40;;;;;;;14.63;2.65;;;7.60;99.90;;;;;;5029858;28;20057;-84
2022/01/08 02:11:07;;;;;;;14.75;3.00;;;7.60;99.90;;;;;;5020995;28;20022;-83
2022/01/08 02:13:33;;;;;;;14.85;4.18;;;7.60;99.90;;;;;;5023216;28;20029;-84
2022/01/08 02:16:01;;;;;;;16.80;2.92;;;7.60;99.90;;;;;;5028909;28;20030;-83
2022/01/08 02:18:28;;;;;;;14.73;2.40;;;7.50;99.90;;;;;;5022701;28;20033;-83
2022/01/08 02:20:56;;;;;;;15.48;2.45;;;7.50;99.90;;;;;;5031190;28;20025;-83
2022/01/08 02:23:22;;;;;;;9.55;2.50;;;7.50;99.90;;;;;;5027992;28;20013;-82
2022/01/08 02:25:51;;;;;;;9.95;2.40;;;7.40;99.90;;;;;;5023262;28;20112;-83
2022/01/08 02:28:17;;;;;;;9.90;1.90;;;7.40;99.90;;;;;;5026544;28;20025;-83
2022/01/08 02:30:44;;;;;;;11.75;2.20;;;7.30;99.90;;;;;;5028316;28;20094;-84
2022/01/08 02:33:10;;;;;;;9.63;2.42;;;7.30;99.90;;;;;;5028972;28;20087;-82
2022/01/08 02:35:36;;;;;;;14.88;3.00;;;7.40;99.90;;;;;;5027987;28;20499;-83
2022/01/08 02:38:02;;;;;;;11.88;2.63;;;7.30;99.90;;;;;;5026498;28;20046;-84
2022/01/08 02:40:28;;;;;;;11.90;2.70;;;7.20;99.90;;;;;;5028357;28;20133;-83
2022/01/08 02:43:03;;;;;;;14.80;2.75;;;7.30;99.90;;;;;;5027577;28;20025;-83
2022/01/08 02:45:30;;;;;;;14.27;2.90;;;7.30;99.90;;;;;;5028413;28;20022;-84
2022/01/08 02:47:56;;;;;;;14.60;2.22;;;7.20;99.90;;;;;;5029458;28;20018;-83
2022/01/08 02:50:23;;;;;;;15.30;3.20;;;7.20;99.90;;;;;;5028308;28;20124;-83
2022/01/08 02:52:49;;;;;;;17.15;2.85;;;7.20;99.90;;;;;;5026810;28;20101;-83
2022/01/08 02:55:18;;;;;;;10.63;1.98;;;7.20;99.90;;;;;;5026445;28;20133;-83
2022/01/08 02:57:44;;;;;;;21.48;2.45;;;7.20;99.90;;;;;;5021478;28;20025;-83
2022/01/08 03:00:11;;;;;;;12.75;3.60;;;7.10;99.90;;;;;;5030318;28;20051;-83
2022/01/08 03:02:46;;;;;;;16.35;2.88;;;7.20;99.90;;;;;;5028645;28;20040;-82
2022/01/08 03:05:12;;;;;;;14.93;2.42;;;7.20;99.90;;;;;;5028446;28;20022;-82
2022/01/08 03:07:43;;;;;;;12.80;2.22;;;7.20;99.90;;;;;;5028209;28;20032;-82
2022/01/08 03:10:11;;;;;;;19.95;2.90;;;7.20;99.90;;;;;;5028258;28;20032;-82
2022/01/08 03:12:41;;;;;;;14.07;3.17;;;7.20;99.90;;;;;;5025497;28;20834;-82
2022/01/08 03:15:09;;;;;;;13.32;2.58;;;7.20;99.90;;;;;;5028472;28;20045;-82
2022/01/08 03:17:34;;;;;;;12.25;2.40;;;7.20;99.90;;;;;;5032459;28;20083;-82
2022/01/08 03:20:05;;;;;;;14.90;2.33;;;7.10;99.90;;;;;;5032205;28;20033;-83
2022/01/08 03:22:31;;;;;;;14.88;2.45;;;7.20;99.90;;;;;;5032072;28;20032;-82
2022/01/08 03:24:57;;;;;;;12.43;3.30;;;7.20;99.90;;;;;;5031274;28;20029;-82
2022/01/08 03:27:23;;;;;;;16.35;2.88;;;7.20;99.90;;;;;;5031874;28;20093;-82
2022/01/08 03:29:49;;;;;;;15.88;3.28;;;7.20;99.90;;;;;;5029083;28;20704;-82
2022/01/08 03:32:15;;;;;;;14.07;2.13;;;7.20;99.90;;;;;;5031807;28;20029;-82
2022/01/08 03:34:41;;;;;;;12.13;2.53;;;7.20;99.90;;;;;;5031692;28;20033;-83
2022/01/08 03:37:07;;;;;;;10.02;2.30;;;7.20;99.90;;;;;;5030128;28;20108;-82
2022/01/08 03:39:32;;;;;;;16.48;1.92;;;7.20;99.90;;;;;;5031342;28;20073;-82
2022/01/08 03:41:58;;;;;;;12.82;2.70;;;7.20;99.90;;;;;;5033144;28;20518;-82
2022/01/08 03:44:24;;;;;;;10.60;2.28;;;7.20;99.90;;;;;;5030329;28;20570;-82
2022/01/08 03:46:50;;;;;;;16.38;2.88;;;7.20;99.90;;;;;;5031291;28;20459;-82
2022/01/08 03:51:44;;;;;;;15.63;2.65;;;7.20;99.90;;;;;;5032032;28;20021;-82
2022/01/08 03:54:13;;;;;;;14.55;2.42;;;7.20;99.90;;;;;;5028205;28;20053;-82
2022/01/08 03:56:39;;;;;;;16.63;2.33;;;7.20;99.90;;;;;;5032322;28;20032;-82
2022/01/08 03:59:04;;;;;;;15.45;2.95;;;7.20;99.90;;;;;;5030846;28;20104;-82
2022/01/08 04:01:30;;;;;;;11.52;3.17;;;7.20;99.90;;;;;;5029610;28;20092;-82
2022/01/08 04:03:56;;;;;;;21.75;2.80;;;7.20;99.90;;;;;;5031622;28;20072;-82
2022/01/08 04:06:22;;;;;;;14.30;3.15;;;7.20;99.90;;;;;;5030135;28;20032;-81
2022/01/08 04:08:48;;;;;;;14.43;2.45;;;7.20;99.90;;;;;;5032718;28;20033;-82
2022/01/08 04:11:14;;;;;;;18.67;2.67;;;7.20;99.90;;;;;;5031124;28;20478;-82
2022/01/08 04:13:41;;;;;;;10.48;2.00;;;7.20;99.90;;;;;;5031286;28;20025;-82
2022/01/08 04:16:14;;;;;;;11.75;1.83;;;7.20;99.90;;;;;;5029782;28;20506;-82
2022/01/08 04:18:40;;;;;;;13.93;2.22;;;7.20;99.90;;;;;;5031085;28;20120;-82
2022/01/08 04:23:50;;;;;;;11.45;1.73;;;7.30;99.90;;;;;;5032360;28;20036;-82
2022/01/08 04:26:16;;;;;;;7.03;2.28;;;7.30;99.90;;;;;;5028024;28;20026;-83
2022/01/08 04:28:41;;;;;;;11.02;2.45;;;7.30;99.90;;;;;;5029871;28;20466;-83
2022/01/08 04:31:07;;;;;;;12.55;2.10;;;7.30;99.90;;;;;;5029317;28;20106;-82
2022/01/08 04:33:33;;;;;;;11.93;2.17;;;7.30;99.90;;;;;;5030811;28;20053;-82
2022/01/08 04:35:58;;;;;;;11.15;2.28;;;7.30;99.90;;;;;;5032176;28;20034;-82
2022/01/08 04:38:25;;;;;;;6.85;1.50;;;7.30;99.90;;;;;;5019613;28;20069;-82
2022/01/08 04:40:51;;;;;;;3.95;1.38;;;7.20;99.90;;;;;;5045179;28;20124;-83
2022/01/08 04:43:17;;;;;;;8.13;2.00;;;7.30;99.90;;;;;;5028776;28;20108;-82
2022/01/08 04:45:43;;;;;;;12.80;3.10;;;7.30;99.90;;;;;;5017351;28;20096;-83
2022/01/08 04:48:09;;;;;;;7.78;1.73;;;7.30;99.90;;;;;;5032581;28;20040;-82
2022/01/08 04:50:35;;;;;;;18.45;2.83;;;7.30;99.90;;;;;;5029895;28;20017;-82
2022/01/08 04:53:00;;;;;;;9.68;1.95;;;7.30;99.90;;;;;;5030383;28;20079;-82
2022/01/08 04:55:26;;;;;;;9.05;2.03;;;7.30;99.90;;;;;;5028748;28;20426;-83
2022/01/08 04:57:52;;;;;;;8.35;2.13;;;7.40;99.90;;;;;;5029867;28;20030;-83
2022/01/08 05:00:20;;;;;;;9.48;2.22;;;7.40;99.90;;;;;;5030165;28;20633;-83
2022/01/08 05:02:46;;;;;;;9.23;2.67;;;7.30;99.90;;;;;;5017852;28;20045;-82
2022/01/08 05:05:12;;;;;;;11.60;2.08;;;7.30;99.90;;;;;;5030416;28;20547;-82
2022/01/08 05:07:39;;;;;;;7.47;1.92;;;7.30;99.90;;;;;;5028716;28;20109;-82
2022/01/08 05:10:06;;;;;;;17.00;2.42;;;7.30;99.90;;;;;;5026819;28;20025;-83
2022/01/08 05:12:32;;;;;;;11.43;1.77;;;7.30;99.90;;;;;;5027782;28;20457;-82
2022/01/08 05:15:00;;;;;;;10.30;2.17;;;7.30;99.90;;;;;;5031817;28;20509;-82
2022/01/08 05:17:30;;;;;;;9.95;2.83;;;7.30;99.90;;;;;;5029556;28;20093;-83
2022/01/08 05:19:59;;;;;;;10.38;2.35;;;7.30;99.90;;;;;;5029720;28;20029;-83
2022/01/08 05:22:28;;;;;;;15.95;3.75;;;7.30;99.90;;;;;;5029719;28;20502;-82
2022/01/08 05:24:54;;;;;;;14.02;2.30;;;7.40;99.90;;;;;;5027137;28;20026;-83
2022/01/08 05:27:20;;;;;;;13.98;2.30;;;7.40;99.90;;;;;;5029928;28;20030;-82
2022/01/08 05:29:48;;;;;;;11.27;2.17;;;7.40;99.90;;;;;;5030156;28;20029;-83
2022/01/08 05:32:18;;;;;;;11.32;2.03;;;7.40;99.90;;;;;;5029261;28;20096;-83
2022/01/08 05:34:49;;;;;;;10.27;1.92;;;7.40;99.90;;;;;;5024068;28;20033;-83
2022/01/08 05:37:16;;;;;;;9.30;1.65;;;7.40;99.90;;;;;;5024235;28;20017;-83
2022/01/08 05:39:42;;;;;;;11.48;1.90;;;7.40;99.90;;;;;;5028717;28;20140;-82
2022/01/08 05:42:08;;;;;;;10.02;1.90;;;7.40;99.90;;;;;;5030927;28;20113;-82
2022/01/08 05:44:34;;;;;;;14.80;2.33;;;7.40;99.90;;;;;;5027446;28;20025;-82
2022/01/08 05:47:00;;;;;;;15.15;2.38;;;7.50;99.90;;;;;;5029540;28;20528;-83
2022/01/08 05:49:26;;;;;;;11.35;2.15;;;7.40;99.90;;;;;;5029392;28;20028;-82
2022/01/08 05:51:52;;;;;;;14.27;2.10;;;7.40;99.90;;;;;;5029521;28;20025;-83
2022/01/08 05:54:18;;;;;;;12.18;2.72;;;7.50;99.90;;;;;;5029504;28;20028;-83
2022/01/08 05:56:44;;;;;;;9.70;2.03;;;7.50;99.90;;;;;;5030397;28;20033;-83
2022/01/08 05:59:09;;;;;;;10.45;2.22;;;7.50;99.90;;;;;;5029142;28;20104;-83
2022/01/08 06:01:35;;;;;;;14.65;2.30;;;7.50;99.90;;;;;;5028621;28;20113;-83
2022/01/08 06:04:02;;;;;;;15.98;2.00;;;7.50;99.90;;;;;;5029047;28;20537;-83
2022/01/08 06:06:28;;;;;;;10.13;3.05;;;7.50;99.90;;;;;;5028428;28;20025;-83
2022/01/08 06:08:53;;;;;;;15.30;3.30;;;7.50;99.90;;;;;;5025060;28;20080;-84
2022/01/08 06:11:19;;;;;;;13.25;2.92;;;7.50;99.90;;;;;;5019300;28;20109;-84
2022/01/08 06:13:45;;;;;;;15.32;2.10;;;7.50;99.90;;;;;;5028762;28;20030;-83
2022/01/08 06:16:11;;;;;;;12.45;1.95;;;7.50;99.90;;;;;;5029094;28;20039;-84
2022/01/08 06:18:38;;;;;;;6.45;2.33;;;7.50;99.90;;;;;;5028694;28;20475;-83
2022/01/08 06:21:04;;;;;;;8.60;1.88;;;7.50;99.90;;;;;;5029291;28;20410;-83
2022/01/08 06:23:30;;;;;;;14.98;2.00;;;7.50;99.90;;;;;;5028655;28;20041;-84
2022/01/08 06:25:56;;;;;;;9.38;2.35;;;7.50;99.90;;;;;;5028214;28;20018;-84
2022/01/08 06:28:22;;;;;;;8.80;1.95;;;7.50;99.90;;;;;;5028955;28;20589;-83
2022/01/08 06:30:48;;;;;;;7.78;1.85;;;7.60;99.90;;;;;;5028615;28;20048;-83
2022/01/08 06:33:15;;;;;;;16.92;2.95;;;7.50;99.90;;;;;;5029177;28;20048;-83
2022/01/08 06:35:41;;;;;;;12.05;2.92;;;7.50;99.90;;;;;;5029640;28;20075;-83
2022/01/08 06:38:07;;;;;;;15.05;3.05;;;7.50;99.90;;;;;;5027101;28;20540;-83
2022/01/08 06:40:33;;;;;;;10.38;2.22;;;7.50;99.90;;;;;;5028074;28;20034;-83
2022/01/08 06:42:59;;;;;;;11.20;1.90;;;7.50;99.90;;;;;;5027353;28;20026;-84
2022/01/08 06:45:25;;;;;;;9.98;2.03;;;7.60;99.90;;;;;;5024473;28;20517;-83
2022/01/08 06:47:51;;;;;;;15.13;2.78;;;7.50;99.90;;;;;;5029797;28;20021;-82
2022/01/08 06:50:16;;;;;;;13.38;2.13;;;7.60;99.90;;;;;;5028225;28;20036;-82
2022/01/08 06:52:42;;;;;;;7.57;2.00;;;7.50;99.90;;;;;;5027234;28;20522;-82
2022/01/08 06:55:08;;;;;;;8.82;2.72;;;7.50;99.90;;;;;;5022091;28;20029;-82
2022/01/08 06:57:33;;;;;;;9.68;1.85;;;7.50;99.90;;;;;;5026606;28;20565;-82
2022/01/08 07:00:03;;;;;;;6.18;1.70;;;7.50;99.90;;;;;;5029979;28;20022;-82
2022/01/08 07:02:29;;;;;;;12.10;2.95;;;7.50;99.90;;;;;;5027204;28;20108;-82
2022/01/08 07:04:54;;;;;;;4.45;1.30;;;7.50;99.90;;;;;;5028238;28;20177;-83
2022/01/08 07:07:20;;;;;;;7.57;2.67;;;7.50;99.90;;;;;;5028095;28;20124;-83
2022/01/08 07:09:46;;;;;;;7.32;1.63;;;7.40;99.90;;;;;;5028612;28;20013;-82
2022/01/08 07:12:12;;;;;;;6.00;1.70;;;7.40;99.90;;;;;;5029258;28;20029;-83
2022/01/08 07:14:37;;;;;;;8.25;2.00;;;7.50;99.90;;;;;;5028913;28;20032;-83
2022/01/08 07:17:03;;;;;;;10.20;2.92;;;7.50;99.90;;;;;;5028317;28;20029;-83
2022/01/08 07:19:29;;;;;;;12.00;2.25;;;7.50;99.90;;;;;;5026532;28;20030;-83
2022/01/08 07:21:55;;;;;;;7.72;1.98;;;7.50;99.90;;;;;;5014876;28;20494;-82
2022/01/08 07:24:21;;;;;;;13.40;2.13;;;7.60;99.90;;;;;;5026784;28;20021;-82
2022/01/08 07:26:46;;;;;;;7.22;3.03;;;7.60;99.90;;;;;;5023392;28;20018;-82
2022/01/08 07:29:13;;;;;;;13.27;2.75;;;7.60;99.90;;;;;;5026433;28;20525;-83
2022/01/08 07:31:39;;;;;;;5.20;1.88;;;7.60;99.90;;;;;;5028374;28;20032;-83
2022/01/08 07:34:04;;;;;;;7.22;1.90;;;7.60;99.90;;;;;;5028029;28;20100;-83
2022/01/08 07:36:30;;;;;;;8.65;2.53;;;7.60;99.90;;;;;;5027356;28;20490;-83
2022/01/08 07:38:56;;;;;;;9.32;1.83;;;7.60;99.90;;;;;;5029639;28;20534;-82
2022/01/08 07:41:21;;;;;;;11.10;2.45;;;7.60;99.90;;;;;;5028070;28;20108;-82
2022/01/08 07:43:47;;;;;;;7.25;1.63;;;7.60;99.90;;;;;;5026723;28;20017;-82
2022/01/08 07:46:13;;;;;;;8.98;1.45;;;7.60;99.90;;;;;;5026304;28;20021;-82
2022/01/08 07:48:40;;;;;;;6.43;1.90;;;7.60;99.90;;;;;;5027352;28;20175;-82
2022/01/08 07:51:06;;;;;;;8.63;2.85;;;7.50;99.90;;;;;;5028075;28;20033;-82
2022/01/08 07:53:32;;;;;;;10.20;1.88;;;7.50;99.90;;;;;;5028092;28;20026;-82
2022/01/08 07:55:58;;;;;;;9.68;2.28;;;7.50;99.90;;;;;;5020721;28;20030;-83
2022/01/08 07:58:23;;;;;;;5.78;1.77;;;7.50;99.90;;;;;;5019122;28;20029;-84
2022/01/08 08:00:50;;;;;;;4.45;1.50;;;7.50;99.90;;;;;;5027620;28;20065;-82
2022/01/08 08:03:18;;;;;;;3.97;1.30;;;7.50;99.90;;;;;;5029895;28;20487;-82
2022/01/08 08:05:45;;;;;;;8.23;2.17;;;7.50;99.90;;;;;;5031831;28;20489;-83
2022/01/08 08:08:17;;;;;;;8.50;2.40;;;7.50;99.90;;;;;;5024124;28;20054;-82
2022/01/08 08:10:47;;;;;;;9.95;1.88;;;7.60;99.90;;;;;;5023732;28;20525;-82
2022/01/08 08:13:13;;;;;;;7.28;2.13;;;7.60;99.90;;;;;;5029000;28;20022;-81
2022/01/08 08:15:39;;;;;;;6.68;1.60;;;7.60;99.90;;;;;;5029116;28;20040;-82
2022/01/08 08:18:05;;;;;;;8.10;1.98;;;7.60;99.90;;;;;;5030299;28;20026;-82
2022/01/08 08:20:31;;;;;;;5.97;1.95;;;7.60;99.90;;;;;;5029646;28;20034;-81
2022/01/08 08:22:56;;;;;;;12.77;1.80;;;7.60;99.90;;;;;;5029745;28;20029;-82
2022/01/08 08:25:22;;;;;;;6.47;2.45;;;7.70;99.90;;;;;;5029414;28;20048;-81
2022/01/08 08:27:50;;;;;;;6.18;1.40;;;7.70;99.90;;;;;;5031460;28;20018;-81
2022/01/08 08:30:16;;;;;;;5.43;1.88;;;7.80;99.90;;;;;;5030792;28;20018;-82
2022/01/08 08:32:42;;;;;;;7.65;1.55;;;7.80;99.90;;;;;;5028562;28;20155;-82
2022/01/08 08:35:09;;;;;;;7.68;1.48;;;7.80;99.90;;;;;;5027810;28;20026;-82
2022/01/08 08:37:36;;;;;;;5.43;1.55;;;7.80;99.90;;;;;;5027614;28;20029;-82
2022/01/08 08:40:06;;;;;;;12.48;1.65;;;7.80;99.90;;;;;;5027835;28;20048;-82
2022/01/08 08:42:31;;;;;;;5.90;1.77;;;7.90;99.90;;;;;;5024206;28;20061;-82
2022/01/08 08:44:57;;;;;;;7.05;2.55;;;7.90;99.90;;;;;;5031714;28;20069;-82
2022/01/08 08:47:23;;;;;;;8.15;2.92;;;7.90;99.90;;;;;;5027730;28;20017;-82
2022/01/08 08:49:48;;;;;;;14.55;5.57;;;7.90;99.90;;;;;;5028660;28;20445;-81
2022/01/08 08:52:14;;;;;;;11.45;3.78;;;7.90;99.90;;;;;;5028617;28;20645;-82
2022/01/08 08:54:43;;;;;;;5.90;2.80;;;7.90;99.90;;;;;;5027660;28;20029;-82
2022/01/08 08:57:09;;;;;;;13.45;6.32;;;7.90;99.90;;;;;;5025575;28;20033;-82
2022/01/08 08:59:36;;;;;;;7.82;4.38;;;7.90;99.90;;;;;;5028040;28;20029;-82
2022/01/08 09:02:02;;;;;;;7.85;2.88;;;7.90;99.90;;;;;;5022774;28;20026;-84
2022/01/08 09:04:27;;;;;;;8.68;2.63;;;8.00;99.90;;;;;;5026890;28;20175;-85
2022/01/08 09:06:53;;;;;;;9.77;2.42;;;8.00;99.90;;;;;;5028590;28;20490;-83
2022/01/08 09:09:20;;;;;;;8.32;3.00;;;8.00;99.90;;;;;;5027454;28;20031;-82
2022/01/08 09:11:45;;;;;;;6.53;2.25;;;8.00;99.90;;;;;;5030262;28;20071;-82
2022/01/08 09:14:11;;;;;;;6.80;2.47;;;8.10;99.90;;;;;;5023184;28;20033;-82
2022/01/08 09:16:38;;;;;;;7.75;2.88;;;8.20;99.90;;;;;;5026213;28;20528;-82
2022/01/08 09:19:04;;;;;;;7.07;3.10;;;8.30;99.90;;;;;;5025528;28;20148;-82
2022/01/08 09:21:30;;;;;;;7.05;2.50;;;8.30;99.90;;;;;;5026433;28;20073;-82
2022/01/08 09:23:55;;;;;;;7.63;1.70;;;8.40;99.90;;;;;;5027554;28;20040;-82
2022/01/08 09:26:21;;;;;;;7.50;1.77;;;8.30;99.90;;;;;;5027253;28;20025;-82
2022/01/08 09:28:47;;;;;;;8.35;1.92;;;8.20;99.90;;;;;;5024561;28;20025;-82
2022/01/08 09:31:13;;;;;;;5.00;1.70;;;8.10;99.90;;;;;;5027305;28;20105;-82
2022/01/08 09:33:39;;;;;;;8.13;1.95;;;8.10;99.90;;;;;;5026237;28;20029;-82
2022/01/08 09:36:06;;;;;;;8.07;2.97;;;8.20;99.90;;;;;;5027787;28;20079;-82
2022/01/08 09:38:32;;;;;;;6.20;1.83;;;8.30;99.90;;;;;;5026937;28;20041;-82
2022/01/08 09:40:59;;;;;;;5.13;2.03;;;8.20;99.90;;;;;;5026998;28;20498;-81
2022/01/08 09:43:25;;;;;;;6.10;2.65;;;8.40;99.90;;;;;;5025441;28;20079;-82
2022/01/08 09:45:51;;;;;;;6.25;2.33;;;8.60;99.90;;;;;;5022622;28;20033;-82
2022/01/08 09:48:17;;;;;;;9.93;3.10;;;8.80;99.90;;;;;;5025771;28;20032;-82
2022/01/08 09:50:43;;;;;;;7.47;2.55;;;9.00;99.90;;;;;;5028389;28;20526;-82
2022/01/08 09:53:09;;;;;;;9.52;1.95;;;9.10;99.90;;;;;;5022954;28;20022;-82
2022/01/08 09:55:36;;;;;;;14.00;2.80;;;9.20;99.90;;;;;;5027409;28;20106;-83
2022/01/08 09:58:02;;;;;;;8.23;1.90;;;9.10;99.90;;;;;;5027299;28;20060;-82
2022/01/08 10:00:32;;;;;;;13.40;2.95;;;9.00;99.90;;;;;;5025324;28;20028;-82
2022/01/08 10:03:33;;;;;;;9.57;2.63;;;9.00;99.90;;;;;;5025967;28;20147;-82
2022/01/08 10:06:01;;;;;;;10.57;3.70;;;9.00;99.90;;;;;;5026480;28;20036;-82
2022/01/08 10:08:31;;;;;;;14.10;3.90;;;9.10;99.90;;;;;;5027396;28;20030;-82
2022/01/08 10:11:03;;;;;;;13.77;4.95;;;9.00;99.90;;;;;;5026593;28;20025;-82
2022/01/08 10:13:39;;;;;;;;;;;9.10;99.90;;;;;;5025045;28;20051;-82
2022/01/08 10:18:59;;;;;;;12.48;2.42;;;9.00;99.90;;;;;;5027309;28;20052;-81
2022/01/08 10:21:30;;;;;;;7.18;2.70;;;8.90;99.90;;;;;;5026569;28;20021;-81
2022/01/08 10:24:05;;;;;;;12.07;3.47;;;8.90;99.90;;;;;;5024772;28;20440;-81
2022/01/08 10:26:34;;;;;;;9.68;2.55;;;8.80;99.90;;;;;;5026295;28;20031;-81
2022/01/08 10:29:06;;;;;;;7.18;3.70;;;8.80;99.90;;;;;;5026670;28;20037;-81
2022/01/08 10:31:43;;;;;;;8.40;3.13;;;8.70;99.90;;;;;;5026597;28;20037;-81
2022/01/08 10:34:13;;;;;;;11.48;4.25;;;8.80;99.90;;;;;;5026733;28;20033;-81
2022/01/08 10:36:44;;;;;;;12.35;3.35;;;8.80;99.90;;;;;;5026678;28;20081;-81
2022/01/08 10:39:17;;;;;;;8.23;3.95;;;8.80;99.90;;;;;;5024194;28;20541;-81
2022/01/08 10:41:45;;;;;;;6.65;3.90;;;9.00;99.90;;;;;;5027215;28;20112;-81
2022/01/08 10:44:23;;;;;;;8.20;4.00;;;9.00;99.90;;;;;;5026404;28;20033;-80
2022/01/08 10:46:51;;;;;;;10.38;3.15;;;9.10;99.90;;;;;;5020530;28;20026;-81
2022/01/08 10:49:31;;;;;;;11.50;3.00;;;9.10;99.90;;;;;;5026956;28;20025;-81
2022/01/08 10:51:59;;;;;;;10.82;4.93;;;9.20;99.90;;;;;;5024369;28;20029;-82
2022/01/08 10:54:31;;;;;;;13.07;4.88;;;9.20;99.90;;;;;;5025970;28;20040;-82
2022/01/08 10:57:02;;;;;;;7.13;4.00;;;9.20;99.90;;;;;;5025860;28;20123;-82
2022/01/08 10:59:29;;;;;;;6.97;2.80;;;9.20;99.90;;;;;;5025178;28;20109;-82
2022/01/08 11:02:03;;;;;;;5.05;2.08;;;9.30;99.90;;;;;;5023385;28;20025;-82
2022/01/08 11:04:49;;;;;;;6.97;2.13;;;9.30;99.90;;;;;;5025123;28;20030;-82
2022/01/08 11:07:14;;;;;;;7.78;2.95;;;9.20;99.90;;;;;;5023614;28;20561;-82
2022/01/08 11:09:43;;;;;;;7.25;3.03;;;9.20;99.90;;;;;;5026406;28;20041;-82
2022/01/08 11:12:34;;;;;;;9.90;4.38;;;9.50;99.90;;;;;;5026618;28;20033;-82
2022/01/08 11:17:46;;;;;;;10.98;2.65;;;9.70;99.90;;;;;;5027581;28;20061;-82
2022/01/08 11:20:17;;;;;;;4.55;2.08;;;9.70;99.90;;;;;;5024892;28;20064;-81
2022/01/08 11:22:45;;;;;;;8.63;2.00;;;9.80;99.90;;;;;;5024488;28;20498;-81
2022/01/08 11:25:17;;;;;;;8.38;2.00;;;9.70;99.90;;;;;;5026435;28;20508;-81
2022/01/08 11:28:03;;;;;;;7.95;2.65;;;9.60;99.90;;;;;;5026729;28;20025;-82
2022/01/08 11:30:31;;;;;;;7.30;2.05;;;9.60;99.90;;;;;;5024750;28;20025;-82
2022/01/08 11:33:05;;;;;;;8.02;1.70;;;9.50;99.90;;;;;;5027901;28;20506;-81
2022/01/08 11:35:33;;;;;;;6.68;2.10;;;9.40;99.90;;;;;;5025982;28;20037;-81
2022/01/08 11:38:03;;;;;;;7.82;2.10;;;9.30;99.90;;;;;;5029242;28;20021;-81
2022/01/08 11:40:30;;;;;;;9.10;2.42;;;9.20;99.90;;;;;;5027769;28;20112;-81
2022/01/08 11:42:59;;;;;;;11.13;4.43;;;9.10;99.90;;;;;;5029937;28;20030;-81
2022/01/08 11:45:38;;;;;;;8.32;4.40;;;9.10;99.90;;;;;;5028680;28;20021;-82
2022/01/08 11:48:08;;;;;;;8.70;3.58;;;9.00;99.90;;;;;;5031922;28;20018;-81
2022/01/08 11:50:35;;;;;;;8.90;3.63;;;9.00;99.90;;;;;;5033059;28;20037;-81
2022/01/08 11:53:19;;;;;;;10.25;3.50;;;9.00;99.90;;;;;;5029386;28;20029;-81
2022/01/08 11:55:55;;;;;;;8.90;3.42;;;9.00;99.90;;;;;;5029761;28;20517;-81
2022/01/08 11:58:27;;;;;;;7.45;3.97;;;9.00;99.90;;;;;;5027356;28;20029;-81
2022/01/08 12:00:54;;;;;;;5.88;3.72;;;9.10;99.90;;;;;;5025381;28;20064;-81
2022/01/08 12:03:22;;;;;;;9.60;4.75;;;9.10;99.90;;;;;;5030406;28;20152;-81
2022/01/08 12:05:49;;;;;;;10.98;4.05;;;9.10;99.90;;;;;;5029501;28;20025;-81
2022/01/08 12:08:17;;;;;;;10.48;4.95;;;9.10;99.90;;;;;;5029538;28;20017;-81
2022/01/08 12:10:59;;;;;;;12.98;5.10;;;9.10;99.90;;;;;;5029540;28;20211;-81
2022/01/08 12:13:48;;;;;;;18.77;6.50;;;9.10;99.90;;;;;;5028120;28;20022;-81
2022/01/08 12:16:38;;;;;;;13.73;5.35;;;9.30;99.90;;;;;;5016818;28;20033;-80
2022/01/08 12:19:06;;;;;;;14.32;5.18;;;9.30;99.90;;;;;;5027074;28;20029;-81
2022/01/08 12:21:41;;;;;;;9.23;4.53;;;9.40;99.90;;;;;;5028605;28;20044;-81
2022/01/08 12:24:25;;;;;;;7.07;3.15;;;9.40;99.90;;;;;;5031711;28;20475;-80
2022/01/08 12:26:51;;;;;;;7.93;3.30;;;9.20;99.90;;;;;;5030992;28;20486;-80
2022/01/08 12:29:35;;;;;;;11.20;5.82;;;9.30;99.90;;;;;;5029053;28;20052;-80
2022/01/08 12:32:36;;;;;;;21.05;8.68;;;9.60;99.90;;;;;;5028283;28;20033;-80
2022/01/08 12:35:22;;;;;;;21.77;10.93;;;9.60;99.90;;;;;;5029007;28;20021;-80
2022/01/08 12:37:49;;;;;;;12.68;4.75;;;9.60;99.90;;;;;;5021918;28;20026;-80
2022/01/08 12:40:34;;;;;;;15.13;5.03;;;9.40;99.90;;;;;;5027361;28;20518;-80
2022/01/08 12:43:35;;;;;;;7.13;2.75;;;9.40;99.90;;;;;;5041462;28;20538;-80
2022/01/08 12:46:21;;;;;;;4.95;2.20;;;9.40;99.90;;;;;;5034549;28;20525;-80
2022/01/08 12:49:20;;;;;;;5.75;2.25;;;9.50;99.90;;;;;;5026742;28;20034;-80
2022/01/08 12:51:48;;;;;;;7.18;1.70;;;9.60;99.90;;;;;;4960824;28;20071;-80
2022/01/08 12:54:16;;;;;;;5.93;2.20;;;9.40;99.90;;;;;;4968711;28;20055;-80
2022/01/08 12:56:49;;;;;;;8.43;3.53;;;9.40;99.90;;;;;;4967540;28;20041;-80
2022/01/08 12:59:16;;;;;;;6.93;2.28;;;9.40;99.90;;;;;;4963454;28;20182;-80
2022/01/08 13:01:49;;;;;;;7.65;2.08;;;9.40;99.90;;;;;;4951444;28;20039;-80
2022/01/08 13:04:18;;;;;;;7.68;3.42;;;9.40;99.90;;;;;;4952035;28;20053;-80
2022/01/08 13:06:44;;;;;;;9.50;4.20;;;9.40;99.90;;;;;;4953185;28;20023;-80
2022/01/08 13:09:11;;;;;;;8.30;4.57;;;9.40;99.90;;;;;;4966379;28;20075;-80
2022/01/08 13:11:40;;;;;;;10.07;6.03;;;9.50;99.90;;;;;;4964486;28;20027;-80
2022/01/08 13:14:11;;;;;;;7.13;3.95;;;9.60;99.90;;;;;;4965998;28;20113;-80
2022/01/08 13:16:42;;;;;;;10.25;4.35;;;9.50;99.90;;;;;;4965027;28;20034;-80
2022/01/08 13:19:09;;;;;;;;;;;9.40;99.90;;;;;;4965794;28;20093;-80
2022/01/08 13:21:36;;;;;;;11.25;3.00;;;9.30;99.90;;;;;;4965507;28;19922;-80
2022/01/08 13:24:32;;;;;;;9.48;5.13;;;9.20;99.90;;;;;;4956619;28;20294;-80
2022/01/08 13:27:00;;;;;;;12.63;5.97;;;9.20;99.90;;;;;;4990443;28;20087;-80